TimeCST,TemperatureF,Dew PointF,Humidity,Sea Level PressureIn,VisibilityMPH,Wind Direction,Wind SpeedMPH,Gust SpeedMPH,PrecipitationIn,Events,Conditions,WindDirDegrees,DateUTC
12:09 AM,19.4,15.8,86,30.06,10.0,SE,9.2,-,N/A,,Mostly Cloudy,140,2013-02-17 06:09:00
12:29 AM,19.4,15.8,86,30.06,10.0,SE,8.1,-,N/A,,Clear,140,2013-02-17 06:29:00
12:49 AM,17.6,15.8,93,30.06,10.0,SSE,8.1,-,N/A,,Clear,150,2013-02-17 06:49:00
1:09 AM,17.6,15.8,93,30.06,10.0,SE,6.9,-,N/A,,Scattered Clouds,140,2013-02-17 07:09:00
1:29 AM,17.6,15.8,93,30.06,10.0,SE,5.8,-,N/A,,Scattered Clouds,140,2013-02-17 07:29:00
1:49 AM,17.6,15.8,93,30.06,10.0,SE,8.1,-,N/A,,Clear,140,2013-02-17 07:49:00
2:09 AM,17.6,15.8,93,30.06,10.0,SSE,8.1,-,N/A,,Clear,150,2013-02-17 08:09:00
2:29 AM,17.6,15.8,93,30.06,10.0,SSE,8.1,-,N/A,,Clear,150,2013-02-17 08:29:00
2:49 AM,17.6,15.8,93,30.05,10.0,SSE,10.4,-,N/A,,Clear,150,2013-02-17 08:49:00
3:09 AM,17.6,15.8,93,30.04,10.0,SSE,9.2,-,N/A,,Clear,150,2013-02-17 09:09:00
3:29 AM,17.6,15.8,93,30.04,10.0,SSE,10.4,-,N/A,,Clear,160,2013-02-17 09:29:00
3:49 AM,17.6,15.8,93,30.04,10.0,SSE,9.2,-,N/A,,Clear,160,2013-02-17 09:49:00
4:10 AM,17.6,15.8,93,30.03,10.0,SSE,9.2,-,N/A,,Clear,160,2013-02-17 10:10:00
4:29 AM,17.6,15.8,93,30.03,10.0,SSE,10.4,-,N/A,,Clear,160,2013-02-17 10:29:00
4:49 AM,17.6,15.8,93,30.03,10.0,SSE,10.4,-,N/A,,Clear,160,2013-02-17 10:49:00
5:10 AM,17.6,15.8,93,30.03,10.0,South,10.4,-,N/A,,Clear,170,2013-02-17 11:10:00
5:29 AM,17.6,15.8,93,30.02,10.0,SSE,12.7,-,N/A,,Clear,160,2013-02-17 11:29:00
5:49 AM,17.6,15.8,93,30.01,10.0,SSE,15.0,-,N/A,,Clear,160,2013-02-17 11:49:00
6:10 AM,17.6,15.8,93,30.01,10.0,SSE,13.8,-,N/A,,Clear,150,2013-02-17 12:10:00
6:29 AM,17.6,15.8,93,30.00,10.0,SSE,13.8,-,N/A,,Clear,150,2013-02-17 12:29:00
6:49 AM,17.6,15.8,93,29.99,10.0,SSE,13.8,-,N/A,,Clear,150,2013-02-17 12:49:00
7:10 AM,17.6,15.8,93,29.98,10.0,SSE,15.0,-,N/A,,Clear,150,2013-02-17 13:10:00
7:29 AM,17.6,15.8,93,29.98,10.0,SSE,13.8,-,N/A,,Clear,150,2013-02-17 13:29:00
7:49 AM,17.6,15.8,93,29.98,10.0,SSE,13.8,-,N/A,,Clear,160,2013-02-17 13:49:00
8:10 AM,17.6,15.8,93,29.98,10.0,SSE,13.8,21.9,N/A,,Clear,160,2013-02-17 14:10:00
8:29 AM,19.4,15.8,86,29.97,10.0,South,12.7,19.6,N/A,,Clear,170,2013-02-17 14:29:00
8:49 AM,19.4,17.6,93,29.97,10.0,South,11.5,-,N/A,,Clear,170,2013-02-17 14:49:00
9:10 AM,21.2,17.6,86,29.97,10.0,South,10.4,-,N/A,,Clear,170,2013-02-17 15:10:00
9:29 AM,21.2,17.6,86,29.96,10.0,South,13.8,19.6,N/A,,Clear,170,2013-02-17 15:29:00
9:49 AM,23.0,19.4,86,29.95,10.0,SSE,16.1,-,N/A,,Clear,150,2013-02-17 15:49:00
10:10 AM,24.8,19.4,80,29.95,10.0,SSE,13.8,-,N/A,,Clear,160,2013-02-17 16:10:00
10:29 AM,24.8,19.4,80,29.94,10.0,SSE,13.8,23.0,N/A,,Clear,160,2013-02-17 16:29:00
10:49 AM,26.6,21.2,80,29.94,10.0,SSE,17.3,23.0,N/A,,Clear,160,2013-02-17 16:49:00
11:09 AM,28.4,21.2,74,29.93,10.0,SSE,17.3,21.9,N/A,,Clear,160,2013-02-17 17:09:00
11:29 AM,28.4,21.2,74,29.92,10.0,SSE,16.1,25.3,N/A,,Clear,160,2013-02-17 17:29:00
11:50 AM,28.4,23.0,80,29.91,10.0,SSE,16.1,25.3,N/A,,Clear,160,2013-02-17 17:50:00
12:09 PM,30.2,23.0,75,29.90,10.0,SSE,19.6,25.3,N/A,,Clear,160,2013-02-17 18:09:00
12:29 PM,30.2,24.8,80,29.88,10.0,SSE,20.7,25.3,N/A,,Clear,160,2013-02-17 18:29:00
12:49 PM,30.2,24.8,80,29.87,10.0,SSE,23.0,27.6,N/A,,Clear,160,2013-02-17 18:49:00
1:09 PM,33.8,24.8,70,29.86,10.0,South,13.8,24.2,N/A,,Clear,170,2013-02-17 19:09:00
1:29 PM,33.8,24.8,70,29.85,10.0,SSE,20.7,28.8,N/A,,Clear,160,2013-02-17 19:29:00
1:49 PM,33.8,24.8,70,29.84,10.0,SSE,24.2,31.1,N/A,,Clear,160,2013-02-17 19:49:00
2:09 PM,33.8,24.8,70,29.82,10.0,SSE,23.0,31.1,N/A,,Clear,150,2013-02-17 20:09:00
2:29 PM,33.8,26.6,75,29.81,10.0,SSE,23.0,26.5,N/A,,Clear,160,2013-02-17 20:29:00
2:49 PM,33.8,26.6,75,29.79,10.0,SSE,19.6,27.6,N/A,,Clear,150,2013-02-17 20:49:00
3:09 PM,33.8,26.6,75,29.79,10.0,SSE,25.3,29.9,N/A,,Clear,160,2013-02-17 21:09:00
3:29 PM,35.6,26.6,70,29.78,10.0,SSE,24.2,32.2,N/A,,Clear,160,2013-02-17 21:29:00
3:49 PM,35.6,26.6,70,29.78,10.0,SSE,15.0,25.3,N/A,,Clear,160,2013-02-17 21:49:00
4:10 PM,35.6,26.6,70,29.76,10.0,SSE,21.9,32.2,N/A,,Clear,160,2013-02-17 22:10:00
4:29 PM,35.6,26.6,70,29.76,10.0,SSE,19.6,25.3,N/A,,Clear,150,2013-02-17 22:29:00
4:49 PM,33.8,26.6,75,29.75,10.0,SSE,18.4,25.3,N/A,,Scattered Clouds,150,2013-02-17 22:49:00
5:09 PM,33.8,28.4,81,29.74,10.0,SSE,24.2,27.6,N/A,,Clear,150,2013-02-17 23:09:00
5:30 PM,33.8,28.4,81,29.73,10.0,SSE,20.7,29.9,N/A,,Clear,160,2013-02-17 23:30:00
6:09 PM,33.8,26.6,75,29.72,10.0,SE,23.0,29.9,N/A,,Clear,140,2013-02-18 00:09:00
6:29 PM,33.8,26.6,75,29.71,10.0,SSE,24.2,29.9,N/A,,Clear,150,2013-02-18 00:29:00
6:49 PM,33.8,26.6,75,29.70,10.0,SSE,23.0,31.1,N/A,,Clear,150,2013-02-18 00:49:00
7:09 PM,33.8,26.6,75,29.69,10.0,SSE,24.2,28.8,N/A,,Clear,150,2013-02-18 01:09:00
7:29 PM,33.8,26.6,75,29.69,10.0,SSE,20.7,32.2,N/A,,Clear,160,2013-02-18 01:29:00
7:49 PM,33.8,26.6,75,29.69,10.0,SSE,23.0,31.1,N/A,,Clear,150,2013-02-18 01:49:00
8:09 PM,33.8,26.6,75,29.68,10.0,SSE,20.7,29.9,N/A,,Clear,160,2013-02-18 02:09:00
8:29 PM,33.8,26.6,75,29.67,10.0,SSE,21.9,28.8,N/A,,Clear,160,2013-02-18 02:29:00
8:49 PM,33.8,26.6,75,29.67,10.0,SSE,20.7,28.8,N/A,,Clear,160,2013-02-18 02:49:00
9:09 PM,33.8,26.6,75,29.66,10.0,SSE,23.0,32.2,N/A,,Clear,160,2013-02-18 03:09:00
9:30 PM,33.8,26.6,75,29.66,10.0,SSE,20.7,27.6,N/A,,Clear,160,2013-02-18 03:30:00
9:49 PM,33.8,26.6,75,29.66,10.0,SSE,25.3,29.9,N/A,,Clear,160,2013-02-18 03:49:00
10:09 PM,33.8,26.6,75,29.65,10.0,SSE,25.3,29.9,N/A,,Clear,160,2013-02-18 04:09:00
10:29 PM,33.8,26.6,75,29.65,10.0,SSE,24.2,31.1,N/A,,Clear,160,2013-02-18 04:29:00
10:49 PM,33.8,26.6,75,29.64,10.0,SSE,24.2,33.4,N/A,,Clear,160,2013-02-18 04:49:00
11:10 PM,33.8,26.6,75,29.63,10.0,SSE,23.0,27.6,N/A,,Clear,160,2013-02-18 05:10:00
11:29 PM,33.8,26.6,75,29.62,10.0,SSE,19.6,31.1,N/A,,Clear,160,2013-02-18 05:29:00
11:49 PM,33.8,26.6,75,29.62,10.0,SSE,20.7,27.6,N/A,,Clear,160,2013-02-18 05:49:00